Conant, Illinois
Current Conditions -  °F | °C
As of 2:15 PM on Thursday 29 Jan 2015 (Local Time) from KSAR Reporting Station
Overcast Overcast  
Wind Chill: 34°   Ceiling: 2900
Heat Index: 40°   Visibility: 10mi
Dew Point: 31°   Wind: 12mph
Humidity: 70%   Direction: 300°WNW
Pressure: 30.18"   Gusts: 20mph
Location:  38.0951°N, 89.3926°W
Report Text: KSAR 292015Z AUTO 30010G17KT 10SM OVC029 05/00 A3018 RMK AO2 T00471003
Loading
Personal Weather Stations






























Interactive Weather Map New forecast layout! Learn more

10-Day Weather Forecast

Advertisements
Track Severe Weather on mobile